sensor_id;sensor_type;location;lat;lon;timestamp;P1;durP1;ratioP1;P2;durP2;ratioP2
50128;SDS011;36026;45.478;9.224;2023-04-06T00:00:15;7.30;;;5.25;;
50128;SDS011;36026;45.478;9.224;2023-04-06T00:03:17;12.45;;;5.35;;
50128;SDS011;36026;45.478;9.224;2023-04-06T00:06:19;9.52;;;5.28;;
50128;SDS011;36026;45.478;9.224;2023-04-06T00:09:23;12.25;;;5.03;;
50128;SDS011;36026;45.478;9.224;2023-04-06T00:12:25;8.73;;;5.22;;
50128;SDS011;36026;45.478;9.224;2023-04-06T00:15:26;8.68;;;5.55;;
50128;SDS011;36026;45.478;9.224;2023-04-06T00:18:28;8.57;;;5.22;;
50128;SDS011;36026;45.478;9.224;2023-04-06T00:21:30;8.80;;;5.68;;
50128;SDS011;36026;45.478;9.224;2023-04-06T00:24:34;9.75;;;5.35;;
50128;SDS011;36026;45.478;9.224;2023-04-06T00:27:35;9.82;;;5.13;;
50128;SDS011;36026;45.478;9.224;2023-04-06T00:30:37;11.27;;;5.78;;
50128;SDS011;36026;45.478;9.224;2023-04-06T00:33:39;8.15;;;5.25;;
50128;SDS011;36026;45.478;9.224;2023-04-06T00:36:40;7.35;;;5.53;;
50128;SDS011;36026;45.478;9.224;2023-04-06T00:39:44;9.52;;;5.63;;
50128;SDS011;36026;45.478;9.224;2023-04-06T00:42:45;7.78;;;4.95;;
50128;SDS011;36026;45.478;9.224;2023-04-06T00:45:47;8.20;;;5.35;;
50128;SDS011;36026;45.478;9.224;2023-04-06T00:48:50;7.65;;;4.93;;
50128;SDS011;36026;45.478;9.224;2023-04-06T00:51:52;8.73;;;5.10;;
50128;SDS011;36026;45.478;9.224;2023-04-06T00:54:56;10.88;;;5.35;;
50128;SDS011;36026;45.478;9.224;2023-04-06T00:57:58;7.70;;;5.53;;
50128;SDS011;36026;45.478;9.224;2023-04-06T01:01:00;10.25;;;5.45;;
50128;SDS011;36026;45.478;9.224;2023-04-06T01:04:02;9.65;;;6.15;;
50128;SDS011;36026;45.478;9.224;2023-04-06T01:07:04;8.73;;;4.95;;
50128;SDS011;36026;45.478;9.224;2023-04-06T01:10:07;9.40;;;5.68;;
50128;SDS011;36026;45.478;9.224;2023-04-06T01:13:10;9.25;;;5.30;;
50128;SDS011;36026;45.478;9.224;2023-04-06T01:16:11;7.55;;;4.90;;
50128;SDS011;36026;45.478;9.224;2023-04-06T01:19:13;8.45;;;5.18;;
50128;SDS011;36026;45.478;9.224;2023-04-06T01:22:16;9.57;;;5.50;;
50128;SDS011;36026;45.478;9.224;2023-04-06T01:25:28;7.28;;;5.22;;
50128;SDS011;36026;45.478;9.224;2023-04-06T01:28:30;8.23;;;5.20;;
50128;SDS011;36026;45.478;9.224;2023-04-06T01:31:31;13.52;;;5.70;;
50128;SDS011;36026;45.478;9.224;2023-04-06T01:34:33;7.88;;;5.40;;
50128;SDS011;36026;45.478;9.224;2023-04-06T01:37:36;7.93;;;5.45;;
50128;SDS011;36026;45.478;9.224;2023-04-06T01:40:38;9.40;;;5.53;;
50128;SDS011;36026;45.478;9.224;2023-04-06T01:43:40;10.70;;;6.65;;
50128;SDS011;36026;45.478;9.224;2023-04-06T01:46:41;10.15;;;6.15;;
50128;SDS011;36026;45.478;9.224;2023-04-06T01:49:43;11.30;;;6.18;;
50128;SDS011;36026;45.478;9.224;2023-04-06T01:52:46;9.60;;;6.25;;
50128;SDS011;36026;45.478;9.224;2023-04-06T01:55:48;11.75;;;6.07;;
50128;SDS011;36026;45.478;9.224;2023-04-06T01:58:49;10.27;;;6.32;;
50128;SDS011;36026;45.478;9.224;2023-04-06T02:01:51;10.05;;;6.50;;
50128;SDS011;36026;45.478;9.224;2023-04-06T02:04:53;9.75;;;6.53;;
50128;SDS011;36026;45.478;9.224;2023-04-06T02:07:56;9.38;;;6.30;;
50128;SDS011;36026;45.478;9.224;2023-04-06T02:10:58;8.48;;;6.40;;
50128;SDS011;36026;45.478;9.224;2023-04-06T02:13:59;12.05;;;6.35;;
50128;SDS011;36026;45.478;9.224;2023-04-06T02:17:01;9.57;;;6.55;;
50128;SDS011;36026;45.478;9.224;2023-04-06T02:20:03;11.15;;;6.68;;
50128;SDS011;36026;45.478;9.224;2023-04-06T02:23:07;9.95;;;5.93;;
50128;SDS011;36026;45.478;9.224;2023-04-06T02:26:09;8.48;;;6.05;;
50128;SDS011;36026;45.478;9.224;2023-04-06T02:29:10;9.00;;;6.43;;
50128;SDS011;36026;45.478;9.224;2023-04-06T02:32:12;10.77;;;6.50;;
50128;SDS011;36026;45.478;9.224;2023-04-06T02:35:14;9.70;;;6.40;;
50128;SDS011;36026;45.478;9.224;2023-04-06T02:38:17;9.88;;;6.28;;
50128;SDS011;36026;45.478;9.224;2023-04-06T02:41:19;8.00;;;5.70;;
50128;SDS011;36026;45.478;9.224;2023-04-06T02:44:21;10.68;;;6.68;;
50128;SDS011;36026;45.478;9.224;2023-04-06T02:47:22;9.23;;;6.43;;
50128;SDS011;36026;45.478;9.224;2023-04-06T02:50:24;10.93;;;6.25;;
50128;SDS011;36026;45.478;9.224;2023-04-06T02:53:27;12.32;;;6.72;;
50128;SDS011;36026;45.478;9.224;2023-04-06T02:56:29;11.53;;;6.50;;
50128;SDS011;36026;45.478;9.224;2023-04-06T02:59:32;10.57;;;6.07;;
50128;SDS011;36026;45.478;9.224;2023-04-06T03:02:34;10.80;;;6.28;;
50128;SDS011;36026;45.478;9.224;2023-04-06T03:05:35;9.50;;;6.10;;
50128;SDS011;36026;45.478;9.224;2023-04-06T03:08:38;11.45;;;6.60;;
50128;SDS011;36026;45.478;9.224;2023-04-06T03:11:40;9.45;;;6.10;;
50128;SDS011;36026;45.478;9.224;2023-04-06T03:14:42;11.45;;;6.05;;
50128;SDS011;36026;45.478;9.224;2023-04-06T03:17:43;8.48;;;5.88;;
50128;SDS011;36026;45.478;9.224;2023-04-06T03:20:45;11.48;;;5.90;;
50128;SDS011;36026;45.478;9.224;2023-04-06T03:23:48;11.07;;;5.70;;
50128;SDS011;36026;45.478;9.224;2023-04-06T03:26:51;8.75;;;5.60;;
50128;SDS011;36026;45.478;9.224;2023-04-06T03:29:52;9.70;;;5.53;;
50128;SDS011;36026;45.478;9.224;2023-04-06T03:32:54;9.63;;;6.18;;
50128;SDS011;36026;45.478;9.224;2023-04-06T03:35:56;12.65;;;6.28;;
50128;SDS011;36026;45.478;9.224;2023-04-06T03:38:59;11.90;;;6.00;;
50128;SDS011;36026;45.478;9.224;2023-04-06T03:42:01;11.60;;;6.50;;
50128;SDS011;36026;45.478;9.224;2023-04-06T03:45:03;9.85;;;5.93;;
50128;SDS011;36026;45.478;9.224;2023-04-06T03:48:05;13.80;;;5.80;;
50128;SDS011;36026;45.478;9.224;2023-04-06T03:51:07;10.48;;;5.25;;
50128;SDS011;36026;45.478;9.224;2023-04-06T03:54:10;10.30;;;5.22;;
50128;SDS011;36026;45.478;9.224;2023-04-06T03:57:11;10.82;;;6.00;;
50128;SDS011;36026;45.478;9.224;2023-04-06T04:00:13;10.32;;;5.45;;
50128;SDS011;36026;45.478;9.224;2023-04-06T04:03:16;8.40;;;5.63;;
50128;SDS011;36026;45.478;9.224;2023-04-06T04:06:17;9.15;;;6.13;;
50128;SDS011;36026;45.478;9.224;2023-04-06T04:09:20;11.77;;;5.55;;
50128;SDS011;36026;45.478;9.224;2023-04-06T04:12:22;9.52;;;5.90;;
50128;SDS011;36026;45.478;9.224;2023-04-06T04:15:24;12.48;;;7.15;;
50128;SDS011;36026;45.478;9.224;2023-04-06T04:18:26;8.80;;;6.20;;
50128;SDS011;36026;45.478;9.224;2023-04-06T04:21:28;9.38;;;5.30;;
50128;SDS011;36026;45.478;9.224;2023-04-06T04:24:32;10.47;;;5.60;;
50128;SDS011;36026;45.478;9.224;2023-04-06T04:27:34;11.02;;;6.18;;
50128;SDS011;36026;45.478;9.224;2023-04-06T04:30:36;10.40;;;5.82;;
50128;SDS011;36026;45.478;9.224;2023-04-06T04:33:37;10.52;;;5.75;;
50128;SDS011;36026;45.478;9.224;2023-04-06T04:36:39;9.75;;;5.80;;
50128;SDS011;36026;45.478;9.224;2023-04-06T04:39:43;7.90;;;5.28;;
50128;SDS011;36026;45.478;9.224;2023-04-06T04:42:46;9.35;;;5.85;;
50128;SDS011;36026;45.478;9.224;2023-04-06T04:45:47;13.25;;;6.95;;
50128;SDS011;36026;45.478;9.224;2023-04-06T04:48:49;11.48;;;5.90;;
50128;SDS011;36026;45.478;9.224;2023-04-06T04:51:51;10.80;;;5.18;;
50128;SDS011;36026;45.478;9.224;2023-04-06T04:54:54;10.63;;;5.53;;
50128;SDS011;36026;45.478;9.224;2023-04-06T04:57:55;14.82;;;5.82;;
50128;SDS011;36026;45.478;9.224;2023-04-06T05:00:57;11.05;;;5.40;;
50128;SDS011;36026;45.478;9.224;2023-04-06T05:03:59;11.80;;;5.65;;
50128;SDS011;36026;45.478;9.224;2023-04-06T05:07:04;8.85;;;5.47;;
50128;SDS011;36026;45.478;9.224;2023-04-06T05:10:08;15.30;;;6.00;;
50128;SDS011;36026;45.478;9.224;2023-04-06T05:13:10;10.68;;;5.63;;
50128;SDS011;36026;45.478;9.224;2023-04-06T05:16:12;10.30;;;5.50;;
50128;SDS011;36026;45.478;9.224;2023-04-06T05:19:14;9.40;;;5.93;;
50128;SDS011;36026;45.478;9.224;2023-04-06T05:22:16;10.52;;;5.88;;
50128;SDS011;36026;45.478;9.224;2023-04-06T05:25:19;11.23;;;5.75;;
50128;SDS011;36026;45.478;9.224;2023-04-06T05:28:21;12.75;;;6.40;;
50128;SDS011;36026;45.478;9.224;2023-04-06T05:31:23;8.38;;;5.40;;
50128;SDS011;36026;45.478;9.224;2023-04-06T05:34:25;10.55;;;5.75;;
50128;SDS011;36026;45.478;9.224;2023-04-06T05:37:26;58.95;;;8.88;;
50128;SDS011;36026;45.478;9.224;2023-04-06T05:40:29;15.90;;;6.63;;
50128;SDS011;36026;45.478;9.224;2023-04-06T05:43:31;15.00;;;6.18;;
50128;SDS011;36026;45.478;9.224;2023-04-06T05:46:33;9.90;;;6.00;;
50128;SDS011;36026;45.478;9.224;2023-04-06T05:49:35;12.70;;;5.72;;
50128;SDS011;36026;45.478;9.224;2023-04-06T05:52:36;10.43;;;6.07;;
50128;SDS011;36026;45.478;9.224;2023-04-06T05:55:40;13.55;;;5.57;;
50128;SDS011;36026;45.478;9.224;2023-04-06T05:58:41;10.05;;;5.82;;
50128;SDS011;36026;45.478;9.224;2023-04-06T06:01:43;12.98;;;5.60;;
50128;SDS011;36026;45.478;9.224;2023-04-06T06:04:45;10.25;;;5.45;;
50128;SDS011;36026;45.478;9.224;2023-04-06T06:07:47;14.02;;;5.75;;
50128;SDS011;36026;45.478;9.224;2023-04-06T06:10:50;12.10;;;5.60;;
50128;SDS011;36026;45.478;9.224;2023-04-06T06:13:52;11.38;;;5.07;;
50128;SDS011;36026;45.478;9.224;2023-04-06T06:16:53;9.85;;;5.20;;
50128;SDS011;36026;45.478;9.224;2023-04-06T06:19:55;10.30;;;5.53;;
50128;SDS011;36026;45.478;9.224;2023-04-06T06:22:57;16.48;;;5.80;;
50128;SDS011;36026;45.478;9.224;2023-04-06T06:26:00;9.10;;;5.68;;
50128;SDS011;36026;45.478;9.224;2023-04-06T06:29:02;11.30;;;6.32;;
50128;SDS011;36026;45.478;9.224;2023-04-06T06:32:04;9.45;;;5.03;;
50128;SDS011;36026;45.478;9.224;2023-04-06T06:35:06;13.02;;;5.47;;
50128;SDS011;36026;45.478;9.224;2023-04-06T06:38:09;15.85;;;5.80;;
50128;SDS011;36026;45.478;9.224;2023-04-06T06:41:12;12.82;;;5.95;;
50128;SDS011;36026;45.478;9.224;2023-04-06T06:44:13;11.15;;;5.40;;
50128;SDS011;36026;45.478;9.224;2023-04-06T06:47:16;10.68;;;5.43;;
50128;SDS011;36026;45.478;9.224;2023-04-06T06:50:18;10.50;;;5.88;;
50128;SDS011;36026;45.478;9.224;2023-04-06T06:53:20;9.88;;;5.38;;
50128;SDS011;36026;45.478;9.224;2023-04-06T06:56:23;10.27;;;5.22;;
50128;SDS011;36026;45.478;9.224;2023-04-06T06:59:26;8.93;;;4.80;;
50128;SDS011;36026;45.478;9.224;2023-04-06T07:02:28;11.40;;;5.95;;
50128;SDS011;36026;45.478;9.224;2023-04-06T07:05:30;11.52;;;6.00;;
50128;SDS011;36026;45.478;9.224;2023-04-06T07:08:32;11.73;;;6.10;;
50128;SDS011;36026;45.478;9.224;2023-04-06T07:11:35;10.48;;;6.05;;
50128;SDS011;36026;45.478;9.224;2023-04-06T07:14:37;9.80;;;5.23;;
50128;SDS011;36026;45.478;9.224;2023-04-06T07:17:39;9.88;;;5.15;;
50128;SDS011;36026;45.478;9.224;2023-04-06T07:20:41;8.50;;;5.57;;
50128;SDS011;36026;45.478;9.224;2023-04-06T07:23:43;10.07;;;5.60;;
50128;SDS011;36026;45.478;9.224;2023-04-06T07:26:47;11.18;;;6.18;;
50128;SDS011;36026;45.478;9.224;2023-04-06T07:29:49;8.55;;;5.50;;
50128;SDS011;36026;45.478;9.224;2023-04-06T07:32:50;8.77;;;5.80;;
50128;SDS011;36026;45.478;9.224;2023-04-06T07:35:52;10.50;;;5.25;;
50128;SDS011;36026;45.478;9.224;2023-04-06T07:38:54;7.80;;;5.55;;
50128;SDS011;36026;45.478;9.224;2023-04-06T07:41:57;7.60;;;5.00;;
50128;SDS011;36026;45.478;9.224;2023-04-06T07:44:59;9.45;;;5.38;;
50128;SDS011;36026;45.478;9.224;2023-04-06T07:48:00;7.10;;;5.28;;
50128;SDS011;36026;45.478;9.224;2023-04-06T07:51:02;10.38;;;5.35;;
50128;SDS011;36026;45.478;9.224;2023-04-06T07:54:04;10.40;;;5.55;;
50128;SDS011;36026;45.478;9.224;2023-04-06T07:57:08;9.10;;;5.78;;
50128;SDS011;36026;45.478;9.224;2023-04-06T08:00:10;10.13;;;4.77;;
50128;SDS011;36026;45.478;9.224;2023-04-06T08:03:13;6.57;;;4.83;;
50128;SDS011;36026;45.478;9.224;2023-04-06T08:06:15;6.97;;;4.75;;
50128;SDS011;36026;45.478;9.224;2023-04-06T08:09:16;7.38;;;4.38;;
50128;SDS011;36026;45.478;9.224;2023-04-06T08:12:19;6.80;;;4.07;;
50128;SDS011;36026;45.478;9.224;2023-04-06T08:15:21;8.05;;;4.43;;
50128;SDS011;36026;45.478;9.224;2023-04-06T08:18:23;5.00;;;3.70;;
50128;SDS011;36026;45.478;9.224;2023-04-06T08:21:24;7.40;;;4.05;;
50128;SDS011;36026;45.478;9.224;2023-04-06T08:24:26;5.05;;;4.18;;
50128;SDS011;36026;45.478;9.224;2023-04-06T08:27:29;9.80;;;4.47;;
50128;SDS011;36026;45.478;9.224;2023-04-06T08:30:31;6.32;;;4.50;;
50128;SDS011;36026;45.478;9.224;2023-04-06T08:33:33;5.93;;;4.18;;
50128;SDS011;36026;45.478;9.224;2023-04-06T08:36:36;6.82;;;4.65;;
50128;SDS011;36026;45.478;9.224;2023-04-06T08:39:38;6.97;;;4.32;;
50128;SDS011;36026;45.478;9.224;2023-04-06T08:42:44;10.13;;;4.70;;
50128;SDS011;36026;45.478;9.224;2023-04-06T08:45:50;7.60;;;4.63;;
50128;SDS011;36026;45.478;9.224;2023-04-06T08:48:51;12.40;;;5.47;;
50128;SDS011;36026;45.478;9.224;2023-04-06T08:51:53;10.38;;;4.88;;
50128;SDS011;36026;45.478;9.224;2023-04-06T08:54:55;7.78;;;4.88;;
50128;SDS011;36026;45.478;9.224;2023-04-06T08:57:58;8.10;;;4.93;;
50128;SDS011;36026;45.478;9.224;2023-04-06T09:01:00;11.88;;;5.60;;
50128;SDS011;36026;45.478;9.224;2023-04-06T09:04:03;10.35;;;5.88;;
50128;SDS011;36026;45.478;9.224;2023-04-06T09:07:09;8.63;;;5.57;;
50128;SDS011;36026;45.478;9.224;2023-04-06T09:10:10;6.88;;;5.25;;
50128;SDS011;36026;45.478;9.224;2023-04-06T09:13:14;9.77;;;5.88;;
50128;SDS011;36026;45.478;9.224;2023-04-06T09:16:15;13.30;;;6.25;;
50128;SDS011;36026;45.478;9.224;2023-04-06T09:19:18;9.07;;;5.68;;
50128;SDS011;36026;45.478;9.224;2023-04-06T09:22:20;10.98;;;5.78;;
50128;SDS011;36026;45.478;9.224;2023-04-06T09:25:22;8.35;;;5.50;;
50128;SDS011;36026;45.478;9.224;2023-04-06T09:28:27;12.73;;;5.90;;
50128;SDS011;36026;45.478;9.224;2023-04-06T09:31:30;10.60;;;5.83;;
50128;SDS011;36026;45.478;9.224;2023-04-06T09:34:33;10.45;;;5.90;;
50128;SDS011;36026;45.478;9.224;2023-04-06T09:37:35;8.27;;;4.90;;
50128;SDS011;36026;45.478;9.224;2023-04-06T09:40:36;6.53;;;5.28;;
50128;SDS011;36026;45.478;9.224;2023-04-06T09:43:50;8.40;;;5.70;;
50128;SDS011;36026;45.478;9.224;2023-04-06T09:49:55;8.18;;;5.97;;
50128;SDS011;36026;45.478;9.224;2023-04-06T09:52:57;9.35;;;6.10;;
50128;SDS011;36026;45.478;9.224;2023-04-06T09:56:01;11.18;;;6.28;;
50128;SDS011;36026;45.478;9.224;2023-04-06T09:59:07;263.52;;;25.73;;
50128;SDS011;36026;45.478;9.224;2023-04-06T10:02:12;8.07;;;5.97;;
50128;SDS011;36026;45.478;9.224;2023-04-06T10:05:20;9.23;;;6.43;;
50128;SDS011;36026;45.478;9.224;2023-04-06T10:08:24;7.88;;;5.90;;
50128;SDS011;36026;45.478;9.224;2023-04-06T10:11:28;10.77;;;5.53;;
50128;SDS011;36026;45.478;9.224;2023-04-06T10:14:32;8.23;;;5.60;;
50128;SDS011;36026;45.478;9.224;2023-04-06T10:17:35;9.93;;;6.60;;
50128;SDS011;36026;45.478;9.224;2023-04-06T10:20:38;19.63;;;6.80;;
50128;SDS011;36026;45.478;9.224;2023-04-06T10:23:43;8.88;;;6.72;;
50128;SDS011;36026;45.478;9.224;2023-04-06T10:26:56;15.07;;;6.55;;
50128;SDS011;36026;45.478;9.224;2023-04-06T10:30:05;9.65;;;6.90;;
50128;SDS011;36026;45.478;9.224;2023-04-06T10:33:13;10.25;;;6.18;;
50128;SDS011;36026;45.478;9.224;2023-04-06T10:36:21;9.00;;;6.43;;
50128;SDS011;36026;45.478;9.224;2023-04-06T10:39:24;8.70;;;6.60;;
50128;SDS011;36026;45.478;9.224;2023-04-06T10:42:36;13.95;;;6.60;;
50128;SDS011;36026;45.478;9.224;2023-04-06T10:45:39;8.88;;;6.38;;
50128;SDS011;36026;45.478;9.224;2023-04-06T10:48:43;11.55;;;6.45;;
50128;SDS011;36026;45.478;9.224;2023-04-06T10:51:50;9.60;;;6.90;;
50128;SDS011;36026;45.478;9.224;2023-04-06T10:54:53;11.98;;;7.15;;
50128;SDS011;36026;45.478;9.224;2023-04-06T10:57:56;9.35;;;6.55;;
50128;SDS011;36026;45.478;9.224;2023-04-06T11:00:59;10.32;;;6.00;;
50128;SDS011;36026;45.478;9.224;2023-04-06T11:04:01;10.93;;;6.50;;
50128;SDS011;36026;45.478;9.224;2023-04-06T11:07:03;7.93;;;5.95;;
50128;SDS011;36026;45.478;9.224;2023-04-06T11:10:05;6.95;;;5.75;;
50128;SDS011;36026;45.478;9.224;2023-04-06T11:13:22;9.80;;;6.55;;
50128;SDS011;36026;45.478;9.224;2023-04-06T11:16:30;10.20;;;7.07;;
50128;SDS011;36026;45.478;9.224;2023-04-06T11:19:33;11.63;;;6.72;;
50128;SDS011;36026;45.478;9.224;2023-04-06T11:22:36;11.93;;;6.55;;
50128;SDS011;36026;45.478;9.224;2023-04-06T11:25:50;18.20;;;8.47;;
50128;SDS011;36026;45.478;9.224;2023-04-06T11:28:52;19.13;;;8.77;;
50128;SDS011;36026;45.478;9.224;2023-04-06T11:31:59;11.43;;;6.97;;
50128;SDS011;36026;45.478;9.224;2023-04-06T11:35:06;12.07;;;7.05;;
50128;SDS011;36026;45.478;9.224;2023-04-06T11:38:12;11.65;;;6.63;;
50128;SDS011;36026;45.478;9.224;2023-04-06T11:41:14;9.20;;;7.00;;
50128;SDS011;36026;45.478;9.224;2023-04-06T11:44:26;8.73;;;6.93;;
50128;SDS011;36026;45.478;9.224;2023-04-06T11:47:32;10.88;;;6.97;;
50128;SDS011;36026;45.478;9.224;2023-04-06T11:50:35;15.05;;;6.93;;
50128;SDS011;36026;45.478;9.224;2023-04-06T11:53:43;8.10;;;6.90;;
50128;SDS011;36026;45.478;9.224;2023-04-06T11:56:46;12.75;;;7.10;;
50128;SDS011;36026;45.478;9.224;2023-04-06T11:59:47;10.20;;;7.05;;
50128;SDS011;36026;45.478;9.224;2023-04-06T12:02:50;8.45;;;7.05;;
50128;SDS011;36026;45.478;9.224;2023-04-06T12:05:52;10.82;;;7.68;;
50128;SDS011;36026;45.478;9.224;2023-04-06T12:08:54;10.90;;;8.05;;
50128;SDS011;36026;45.478;9.224;2023-04-06T12:11:55;12.00;;;7.55;;
50128;SDS011;36026;45.478;9.224;2023-04-06T12:14:57;12.52;;;6.85;;
50128;SDS011;36026;45.478;9.224;2023-04-06T12:18:01;10.88;;;8.02;;
50128;SDS011;36026;45.478;9.224;2023-04-06T12:21:03;12.05;;;7.22;;
50128;SDS011;36026;45.478;9.224;2023-04-06T12:24:05;11.30;;;8.00;;
50128;SDS011;36026;45.478;9.224;2023-04-06T12:27:08;10.63;;;7.67;;
50128;SDS011;36026;45.478;9.224;2023-04-06T12:30:11;9.93;;;7.68;;
50128;SDS011;36026;45.478;9.224;2023-04-06T12:33:15;11.10;;;7.82;;
50128;SDS011;36026;45.478;9.224;2023-04-06T12:36:17;11.48;;;8.13;;
50128;SDS011;36026;45.478;9.224;2023-04-06T12:39:21;14.00;;;8.05;;
50128;SDS011;36026;45.478;9.224;2023-04-06T12:42:22;21.70;;;8.68;;
50128;SDS011;36026;45.478;9.224;2023-04-06T12:45:24;19.48;;;9.05;;
50128;SDS011;36026;45.478;9.224;2023-04-06T12:48:27;12.27;;;8.45;;
50128;SDS011;36026;45.478;9.224;2023-04-06T12:51:30;12.02;;;8.98;;
50128;SDS011;36026;45.478;9.224;2023-04-06T12:54:32;14.13;;;8.77;;
50128;SDS011;36026;45.478;9.224;2023-04-06T12:57:33;13.85;;;8.75;;
50128;SDS011;36026;45.478;9.224;2023-04-06T13:00:37;11.05;;;7.82;;
50128;SDS011;36026;45.478;9.224;2023-04-06T13:03:40;11.27;;;8.43;;
50128;SDS011;36026;45.478;9.224;2023-04-06T13:06:42;13.00;;;8.38;;
50128;SDS011;36026;45.478;9.224;2023-04-06T13:09:43;14.05;;;8.63;;
50128;SDS011;36026;45.478;9.224;2023-04-06T13:12:47;11.77;;;8.02;;
50128;SDS011;36026;45.478;9.224;2023-04-06T13:15:49;11.10;;;7.72;;
50128;SDS011;36026;45.478;9.224;2023-04-06T13:18:52;9.40;;;7.78;;
50128;SDS011;36026;45.478;9.224;2023-04-06T13:21:54;9.85;;;8.13;;
50128;SDS011;36026;45.478;9.224;2023-04-06T13:24:56;13.57;;;7.90;;
50128;SDS011;36026;45.478;9.224;2023-04-06T13:27:58;11.45;;;8.27;;
50128;SDS011;36026;45.478;9.224;2023-04-06T13:31:00;11.43;;;8.50;;
50128;SDS011;36026;45.478;9.224;2023-04-06T13:34:04;11.10;;;8.93;;
50128;SDS011;36026;45.478;9.224;2023-04-06T13:37:06;18.45;;;8.73;;
50128;SDS011;36026;45.478;9.224;2023-04-06T13:40:08;13.68;;;8.60;;
50128;SDS011;36026;45.478;9.224;2023-04-06T13:43:10;9.98;;;7.85;;
50128;SDS011;36026;45.478;9.224;2023-04-06T13:46:12;12.95;;;8.70;;
50128;SDS011;36026;45.478;9.224;2023-04-06T13:49:15;13.65;;;8.75;;
50128;SDS011;36026;45.478;9.224;2023-04-06T13:52:17;13.68;;;9.18;;
50128;SDS011;36026;45.478;9.224;2023-04-06T13:55:18;17.83;;;9.27;;
50128;SDS011;36026;45.478;9.224;2023-04-06T13:58:20;13.48;;;9.38;;
50128;SDS011;36026;45.478;9.224;2023-04-06T14:01:22;15.75;;;8.38;;
50128;SDS011;36026;45.478;9.224;2023-04-06T14:04:26;13.13;;;9.00;;
50128;SDS011;36026;45.478;9.224;2023-04-06T14:07:28;14.35;;;8.23;;
50128;SDS011;36026;45.478;9.224;2023-04-06T14:10:29;12.82;;;7.35;;
50128;SDS011;36026;45.478;9.224;2023-04-06T14:13:31;13.07;;;7.28;;
50128;SDS011;36026;45.478;9.224;2023-04-06T14:16:32;12.68;;;7.43;;
50128;SDS011;36026;45.478;9.224;2023-04-06T14:19:36;11.60;;;7.43;;
50128;SDS011;36026;45.478;9.224;2023-04-06T14:22:38;20.27;;;7.95;;
50128;SDS011;36026;45.478;9.224;2023-04-06T14:25:40;11.40;;;7.60;;
50128;SDS011;36026;45.478;9.224;2023-04-06T14:28:42;13.93;;;7.65;;
50128;SDS011;36026;45.478;9.224;2023-04-06T14:31:44;10.98;;;7.28;;
50128;SDS011;36026;45.478;9.224;2023-04-06T14:34:49;9.32;;;7.20;;
50128;SDS011;36026;45.478;9.224;2023-04-06T14:37:51;10.10;;;7.50;;
50128;SDS011;36026;45.478;9.224;2023-04-06T14:40:53;10.32;;;8.02;;
50128;SDS011;36026;45.478;9.224;2023-04-06T14:43:55;9.70;;;8.07;;
50128;SDS011;36026;45.478;9.224;2023-04-06T14:46:57;10.30;;;7.97;;
50128;SDS011;36026;45.478;9.224;2023-04-06T14:50:00;12.30;;;8.70;;
50128;SDS011;36026;45.478;9.224;2023-04-06T14:53:01;12.13;;;7.82;;
50128;SDS011;36026;45.478;9.224;2023-04-06T14:56:03;14.35;;;8.00;;
50128;SDS011;36026;45.478;9.224;2023-04-06T14:59:05;10.52;;;7.35;;
50128;SDS011;36026;45.478;9.224;2023-04-06T15:02:07;14.27;;;8.15;;
50128;SDS011;36026;45.478;9.224;2023-04-06T15:05:10;9.93;;;6.97;;
50128;SDS011;36026;45.478;9.224;2023-04-06T15:08:12;15.98;;;7.07;;
50128;SDS011;36026;45.478;9.224;2023-04-06T15:11:15;27.75;;;9.10;;
50128;SDS011;36026;45.478;9.224;2023-04-06T15:14:16;11.45;;;7.65;;
50128;SDS011;36026;45.478;9.224;2023-04-06T15:17:18;9.65;;;7.25;;
50128;SDS011;36026;45.478;9.224;2023-04-06T15:20:21;10.55;;;6.82;;
50128;SDS011;36026;45.478;9.224;2023-04-06T15:23:22;9.88;;;7.13;;
50128;SDS011;36026;45.478;9.224;2023-04-06T15:26:25;11.68;;;6.55;;
50128;SDS011;36026;45.478;9.224;2023-04-06T15:29:27;9.43;;;7.15;;
50128;SDS011;36026;45.478;9.224;2023-04-06T15:32:28;11.23;;;7.28;;
50128;SDS011;36026;45.478;9.224;2023-04-06T15:35:32;8.07;;;6.75;;
50128;SDS011;36026;45.478;9.224;2023-04-06T15:38:39;9.15;;;6.40;;
50128;SDS011;36026;45.478;9.224;2023-04-06T15:41:41;16.17;;;7.35;;
50128;SDS011;36026;45.478;9.224;2023-04-06T15:44:43;22.08;;;7.97;;
50128;SDS011;36026;45.478;9.224;2023-04-06T15:47:44;18.60;;;7.55;;
50128;SDS011;36026;45.478;9.224;2023-04-06T15:50:47;26.67;;;7.55;;
50128;SDS011;36026;45.478;9.224;2023-04-06T15:53:49;9.38;;;6.55;;
50128;SDS011;36026;45.478;9.224;2023-04-06T15:56:53;12.00;;;6.40;;
50128;SDS011;36026;45.478;9.224;2023-04-06T15:59:56;11.98;;;7.13;;
50128;SDS011;36026;45.478;9.224;2023-04-06T16:02:57;9.85;;;6.97;;
50128;SDS011;36026;45.478;9.224;2023-04-06T16:06:00;14.30;;;7.60;;
50128;SDS011;36026;45.478;9.224;2023-04-06T16:09:02;9.60;;;6.57;;
50128;SDS011;36026;45.478;9.224;2023-04-06T16:12:04;12.80;;;7.25;;
50128;SDS011;36026;45.478;9.224;2023-04-06T16:15:06;18.55;;;7.63;;
50128;SDS011;36026;45.478;9.224;2023-04-06T16:18:08;9.38;;;6.20;;
50128;SDS011;36026;45.478;9.224;2023-04-06T16:21:14;8.65;;;6.63;;
50128;SDS011;36026;45.478;9.224;2023-04-06T16:24:16;8.82;;;6.60;;
50128;SDS011;36026;45.478;9.224;2023-04-06T16:27:17;15.95;;;6.28;;
50128;SDS011;36026;45.478;9.224;2023-04-06T16:30:19;12.05;;;6.90;;
50128;SDS011;36026;45.478;9.224;2023-04-06T16:33:21;12.77;;;8.13;;
50128;SDS011;36026;45.478;9.224;2023-04-06T16:36:25;10.05;;;6.68;;
50128;SDS011;36026;45.478;9.224;2023-04-06T16:39:27;202.57;;;101.93;;
50128;SDS011;36026;45.478;9.224;2023-04-06T16:42:29;236.13;;;130.02;;
50128;SDS011;36026;45.478;9.224;2023-04-06T16:45:31;255.05;;;132.15;;
50128;SDS011;36026;45.478;9.224;2023-04-06T16:48:32;19.88;;;12.77;;
50128;SDS011;36026;45.478;9.224;2023-04-06T16:51:35;13.77;;;7.72;;
50128;SDS011;36026;45.478;9.224;2023-04-06T16:54:37;13.57;;;7.67;;
50128;SDS011;36026;45.478;9.224;2023-04-06T16:57:38;11.82;;;7.45;;
50128;SDS011;36026;45.478;9.224;2023-04-06T17:00:40;12.65;;;8.00;;
50128;SDS011;36026;45.478;9.224;2023-04-06T17:03:42;12.73;;;7.88;;
50128;SDS011;36026;45.478;9.224;2023-04-06T17:06:46;14.02;;;8.00;;
50128;SDS011;36026;45.478;9.224;2023-04-06T17:09:48;11.20;;;8.38;;
50128;SDS011;36026;45.478;9.224;2023-04-06T17:12:49;10.18;;;7.53;;
50128;SDS011;36026;45.478;9.224;2023-04-06T17:15:51;15.50;;;7.78;;
50128;SDS011;36026;45.478;9.224;2023-04-06T17:18:53;12.13;;;7.95;;
50128;SDS011;36026;45.478;9.224;2023-04-06T17:21:56;14.88;;;8.68;;
50128;SDS011;36026;45.478;9.224;2023-04-06T17:24:57;12.63;;;8.07;;
50128;SDS011;36026;45.478;9.224;2023-04-06T17:28:01;16.70;;;9.07;;
50128;SDS011;36026;45.478;9.224;2023-04-06T17:31:06;12.13;;;7.97;;
50128;SDS011;36026;45.478;9.224;2023-04-06T17:34:09;12.48;;;8.23;;
50128;SDS011;36026;45.478;9.224;2023-04-06T17:37:12;12.18;;;8.13;;
50128;SDS011;36026;45.478;9.224;2023-04-06T17:40:14;14.15;;;7.32;;
50128;SDS011;36026;45.478;9.224;2023-04-06T17:43:16;13.07;;;8.02;;
50128;SDS011;36026;45.478;9.224;2023-04-06T17:46:18;13.70;;;8.02;;
50128;SDS011;36026;45.478;9.224;2023-04-06T17:49:21;12.63;;;8.30;;
50128;SDS011;36026;45.478;9.224;2023-04-06T17:52:26;14.30;;;7.95;;
50128;SDS011;36026;45.478;9.224;2023-04-06T17:55:27;13.05;;;8.57;;
50128;SDS011;36026;45.478;9.224;2023-04-06T17:58:29;15.25;;;8.25;;
50128;SDS011;36026;45.478;9.224;2023-04-06T18:01:31;14.68;;;8.88;;
50128;SDS011;36026;45.478;9.224;2023-04-06T18:04:32;13.88;;;8.23;;
50128;SDS011;36026;45.478;9.224;2023-04-06T18:07:35;14.30;;;8.10;;
50128;SDS011;36026;45.478;9.224;2023-04-06T18:10:37;16.57;;;9.10;;